Time;durP1;ratioP1;P1;durP2;ratioP2;P2;SDS_P1;SDS_P2;PMS_P1;PMS_P2;Temp;Humidity;BMP_temperature;BMP_pressure;BME280_temperature;BME280_humidity;BME280_pressure;Samples;Min_cycle;Max_cycle;Signal;HPM_P1;HPM_P2
2023/10/16 00:02:59;;;;;;;4.63;1.58;;;-0.50;99.90;;;;;;8247866;28;20034;-81
2023/10/16 00:07:00;;;;;;;3.10;1.73;;;-0.60;99.90;;;;;;8251349;28;20096;-80
2023/10/16 00:11:05;;;;;;;2.00;1.35;;;-0.70;99.90;;;;;;8267690;28;20034;-81
2023/10/16 00:15:07;;;;;;;3.25;1.70;;;-0.70;99.90;;;;;;8268674;28;20054;-81
2023/10/16 00:19:09;;;;;;;15.60;1.88;;;-0.70;99.90;;;;;;8268428;28;20026;-81
2023/10/16 00:23:10;;;;;;;9.25;1.27;;;-0.60;99.90;;;;;;8254340;28;20022;-81
2023/10/16 00:27:15;;;;;;;5.28;1.23;;;-0.70;99.90;;;;;;8253519;28;20126;-81
2023/10/16 00:31:20;;;;;;;3.22;1.15;;;-0.60;99.90;;;;;;8265052;28;20032;-81
2023/10/16 00:35:22;;;;;;;7.35;1.42;;;-0.70;99.90;;;;;;8251579;28;20038;-81
2023/10/16 00:39:28;;;;;;;2.08;1.20;;;-0.70;99.90;;;;;;8273428;28;20537;-81
2023/10/16 00:43:28;;;;;;;2.50;1.27;;;-0.80;99.90;;;;;;8267510;28;20049;-81
2023/10/16 00:47:29;;;;;;;2.33;1.27;;;-0.90;99.90;;;;;;8263371;28;20030;-81
2023/10/16 00:51:32;;;;;;;1.30;1.05;;;-0.90;99.90;;;;;;8253383;28;20022;-81
2023/10/16 00:55:33;;;;;;;2.00;1.20;;;-0.90;99.90;;;;;;8259055;28;20113;-80
2023/10/16 00:59:39;;;;;;;1.58;1.25;;;-0.90;99.90;;;;;;8249982;28;20022;-80
2023/10/16 01:03:40;;;;;;;2.90;1.67;;;-1.00;99.90;;;;;;8263380;28;20023;-81
2023/10/16 01:07:41;;;;;;;1.67;1.02;;;-1.00;99.90;;;;;;8258145;28;20550;-81
2023/10/16 01:11:42;;;;;;;3.15;1.42;;;-1.10;99.90;;;;;;8252938;28;20570;-81
2023/10/16 01:15:53;;;;;;;1.48;1.05;;;-1.10;99.90;;;;;;8277526;28;20081;-81
2023/10/16 01:19:56;;;;;;;2.42;1.50;;;-1.10;99.90;;;;;;8259754;28;20022;-81
2023/10/16 01:24:02;;;;;;;3.13;1.60;;;-1.10;99.90;;;;;;8265669;28;20033;-81
2023/10/16 01:28:04;;;;;;;1.88;1.20;;;-1.20;99.90;;;;;;8250270;28;20100;-81
2023/10/16 01:32:05;;;;;;;1.30;1.10;;;-1.20;99.90;;;;;;8258880;28;20030;-81
2023/10/16 01:36:07;;;;;;;1.55;1.15;;;-1.10;99.90;;;;;;8246943;28;20054;-80
2023/10/16 01:40:25;;;;;;;2.58;1.35;;;-1.10;99.90;;;;;;8261680;28;20015;-81
2023/10/16 01:44:25;;;;;;;3.67;1.20;;;-1.20;99.90;;;;;;8245919;28;20029;-80
2023/10/16 01:48:28;;;;;;;1.30;0.93;;;-1.20;99.90;;;;;;8266066;28;20035;-80
2023/10/16 01:52:33;;;;;;;2.00;1.40;;;-1.30;99.90;;;;;;8243629;28;20030;-80
2023/10/16 01:56:34;;;;;;;2.67;1.45;;;-1.20;99.90;;;;;;8265429;28;20018;-80
2023/10/16 02:00:35;;;;;;;4.97;1.15;;;-1.20;99.90;;;;;;8248566;28;20026;-80
2023/10/16 02:04:37;;;;;;;3.20;1.45;;;-1.30;99.90;;;;;;8252339;28;20027;-80
2023/10/16 02:08:43;;;;;;;2.10;1.33;;;-1.20;99.90;;;;;;8248133;28;20081;-81
2023/10/16 02:12:44;;;;;;;4.32;1.80;;;-1.20;99.90;;;;;;8260430;28;20038;-81
2023/10/16 02:16:47;;;;;;;4.20;1.20;;;-1.30;99.90;;;;;;8263115;28;20026;-80
2023/10/16 02:20:49;;;;;;;1.85;1.50;;;-1.30;99.90;;;;;;8274736;28;20026;-81
2023/10/16 02:24:50;;;;;;;1.50;1.23;;;-1.20;99.90;;;;;;8263186;28;20525;-79
2023/10/16 02:28:54;;;;;;;1.65;1.15;;;-1.20;99.90;;;;;;8247939;28;20021;-80
2023/10/16 02:33:10;;;;;;;2.00;1.60;;;-0.90;99.90;;;;;;8247462;28;20033;-80
2023/10/16 02:37:13;;;;;;;2.30;1.55;;;-0.60;99.90;;;;;;8263916;28;20386;-80
2023/10/16 02:41:16;;;;;;;2.25;1.40;;;-0.70;99.90;;;;;;8269877;28;20521;-80
2023/10/16 02:45:25;;;;;;;2.47;1.60;;;-0.90;99.90;;;;;;8251710;28;20037;-80
2023/10/16 02:49:26;;;;;;;2.15;1.55;;;-0.90;99.90;;;;;;8278470;28;20034;-81
2023/10/16 02:53:28;;;;;;;4.38;2.10;;;-1.00;99.90;;;;;;8249656;28;20458;-79
2023/10/16 02:57:29;;;;;;;2.95;1.60;;;-1.10;99.90;;;;;;8271321;28;20034;-80
2023/10/16 03:01:29;;;;;;;2.75;1.95;;;-1.10;99.90;;;;;;8261733;28;20034;-79
2023/10/16 03:05:31;;;;;;;5.43;2.00;;;-1.10;99.90;;;;;;8257064;28;20707;-81
2023/10/16 03:09:32;;;;;;;2.47;1.65;;;-1.20;99.90;;;;;;8251363;28;20117;-81
2023/10/16 03:13:35;;;;;;;2.17;1.50;;;-1.30;99.90;;;;;;8251494;28;20069;-80
2023/10/16 03:17:36;;;;;;;2.70;1.60;;;-1.40;99.90;;;;;;8268024;28;20034;-80
2023/10/16 03:21:39;;;;;;;5.53;1.50;;;-1.40;99.90;;;;;;8275343;28;20037;-80
2023/10/16 03:29:41;;;;;;;2.58;1.75;;;-1.60;99.90;;;;;;8267899;28;20050;-79
2023/10/16 03:33:43;;;;;;;2.60;1.85;;;-1.60;99.90;;;;;;8252135;28;20034;-80
2023/10/16 03:37:44;;;;;;;5.85;1.83;;;-1.60;99.90;;;;;;8281665;28;20026;-80
2023/10/16 03:41:44;;;;;;;3.40;1.80;;;-1.60;99.90;;;;;;8255582;28;20117;-80
2023/10/16 03:45:45;;;;;;;2.35;1.42;;;-1.70;99.90;;;;;;8273417;28;20042;-80
2023/10/16 03:49:46;;;;;;;2.15;1.55;;;-1.80;99.90;;;;;;8253022;28;20029;-80
2023/10/16 03:53:50;;;;;;;3.40;1.73;;;-1.70;99.90;;;;;;8260900;28;20019;-79
2023/10/16 03:57:53;;;;;;;2.05;1.73;;;-1.70;99.90;;;;;;8250374;28;20034;-79
2023/10/16 04:01:53;;;;;;;3.05;1.63;;;-1.60;99.90;;;;;;8268246;28;20033;-80
2023/10/16 04:05:54;;;;;;;2.80;1.60;;;-1.70;99.90;;;;;;8269998;28;20034;-80
2023/10/16 04:09:58;;;;;;;2.90;1.55;;;-1.70;99.90;;;;;;8250339;28;20511;-79
2023/10/16 04:13:59;;;;;;;3.58;2.00;;;-1.80;99.90;;;;;;8272737;28;20105;-80
2023/10/16 04:18:04;;;;;;;3.08;1.88;;;-1.80;99.90;;;;;;8268038;28;20025;-80
2023/10/16 04:22:09;;;;;;;5.15;1.88;;;-1.80;99.90;;;;;;8275836;28;20106;-78
2023/10/16 04:38:52;;;;;;;2.38;1.70;;;-1.90;99.90;;;;;;8274673;28;20483;-80
2023/10/16 04:47:06;;;;;;;6.13;1.67;;;-2.00;99.90;;;;;;8265333;28;20033;-80
2023/10/16 04:51:15;;;;;;;3.10;1.30;;;-2.00;99.90;;;;;;8259195;28;20509;-80
2023/10/16 04:55:52;;;;;;;4.28;1.35;;;-2.00;99.90;;;;;;8266841;28;20026;-80
2023/10/16 04:59:37;;;;;;;3.30;1.65;;;-1.90;99.90;;;;;;8267159;28;20038;-80
2023/10/16 05:07:46;;;;;;;3.17;1.75;;;-1.80;99.90;;;;;;8266832;28;20677;-81
2023/10/16 05:20:52;;;;;;;4.72;1.55;;;-2.00;99.90;;;;;;8265678;28;20036;-80
2023/10/16 06:16:47;;;;;;;4.55;2.05;;;-1.90;99.90;;;;;;8259218;28;20237;-81
2023/10/16 06:20:51;;;;;;;3.08;1.90;;;-1.80;99.90;;;;;;8247309;28;20026;-80
2023/10/16 06:24:52;;;;;;;2.97;1.88;;;-1.70;99.90;;;;;;8266306;28;20022;-79
2023/10/16 06:28:53;;;;;;;3.15;1.85;;;-1.50;99.90;;;;;;8245157;28;20033;-79
2023/10/16 06:32:54;;;;;;;4.75;1.45;;;-1.40;99.90;;;;;;8254809;28;20034;-81
2023/10/16 06:36:55;;;;;;;2.58;1.50;;;-1.30;99.90;;;;;;8263131;28;20027;-80
2023/10/16 06:40:57;;;;;;;1.92;1.48;;;-1.10;99.90;;;;;;8238306;28;20034;-80
2023/10/16 06:45:06;;;;;;;2.35;1.70;;;-1.00;99.90;;;;;;8249765;28;20026;-80
2023/10/16 06:49:09;;;;;;;5.13;2.08;;;-0.90;99.90;;;;;;8256337;28;20019;-80
2023/10/16 06:53:09;;;;;;;3.67;2.42;;;-0.80;99.90;;;;;;8255243;28;20034;-80
2023/10/16 06:57:13;;;;;;;4.18;2.22;;;-0.70;99.90;;;;;;8251494;28;20026;-80
2023/10/16 07:01:19;;;;;;;4.38;2.50;;;-0.50;99.90;;;;;;8258976;28;20027;-80
2023/10/16 07:05:22;;;;;;;2.75;2.08;;;-0.50;99.90;;;;;;8269107;28;20718;-81
2023/10/16 07:09:37;;;;;;;3.58;2.20;;;-0.30;99.90;;;;;;8249457;28;20030;-80
2023/10/16 07:13:38;;;;;;;2.58;1.58;;;-0.10;99.90;;;;;;8262368;28;20034;-79
2023/10/16 07:17:39;;;;;;;1.70;1.40;;;0.00;99.90;;;;;;8251986;28;20701;-81
2023/10/16 07:21:40;;;;;;;3.67;1.60;;;0.20;99.90;;;;;;8258017;28;20117;-79
2023/10/16 07:25:57;;;;;;;3.55;1.67;;;0.40;99.90;;;;;;8248636;28;20058;-80
2023/10/16 07:29:59;;;;;;;10.25;4.57;;;0.60;99.90;;;;;;8252152;28;20026;-80
2023/10/16 07:34:04;;;;;;;5.80;2.75;;;0.60;99.90;;;;;;8250349;28;20030;-81
2023/10/16 07:38:05;;;;;;;5.10;2.70;;;0.60;99.90;;;;;;8270765;28;20475;-80
2023/10/16 07:42:10;;;;;;;8.75;3.00;;;0.70;99.90;;;;;;8264210;28;20066;-80
2023/10/16 07:50:11;;;;;;;5.10;2.50;;;1.10;99.90;;;;;;8264043;28;20062;-80
2023/10/16 07:54:11;;;;;;;4.97;2.58;;;1.30;99.90;;;;;;8275542;28;20033;-80
2023/10/16 07:58:15;;;;;;;9.05;3.17;;;1.60;99.90;;;;;;8251501;28;20077;-80
2023/10/16 08:02:18;;;;;;;7.60;3.50;;;2.00;99.90;;;;;;8269663;28;20566;-81
2023/10/16 08:06:24;;;;;;;7.32;3.90;;;2.40;99.90;;;;;;8263707;28;20049;-81
2023/10/16 08:10:42;;;;;;;6.45;3.67;;;2.70;99.90;;;;;;8251017;28;20026;-81
2023/10/16 08:14:43;;;;;;;8.20;4.15;;;3.00;99.90;;;;;;8264609;28;20022;-81
2023/10/16 08:18:48;;;;;;;5.93;3.58;;;3.70;99.90;;;;;;8274076;28;20111;-81
2023/10/16 08:22:50;;;;;;;7.07;4.10;;;3.80;99.90;;;;;;8274653;28;20022;-82
2023/10/16 08:26:52;;;;;;;7.00;4.47;;;3.90;99.90;;;;;;8278214;28;20026;-81
2023/10/16 08:30:54;;;;;;;8.25;4.72;;;3.80;99.90;;;;;;8250956;28;20042;-82
2023/10/16 08:34:54;;;;;;;7.55;4.47;;;4.10;99.90;;;;;;8268755;28;20026;-81
2023/10/16 08:38:55;;;;;;;6.45;4.20;;;4.30;99.90;;;;;;8268548;28;20037;-82
2023/10/16 08:43:01;;;;;;;8.60;4.60;;;4.50;99.90;;;;;;8271483;28;20022;-82
2023/10/16 08:51:08;;;;;;;9.38;4.55;;;4.90;99.90;;;;;;8267708;28;20028;-82
2023/10/16 08:55:14;;;;;;;6.57;4.38;;;5.10;99.90;;;;;;8254467;28;20026;-81
2023/10/16 08:59:16;;;;;;;5.50;2.78;;;5.40;99.90;;;;;;8250960;28;20594;-82
2023/10/16 09:03:19;;;;;;;5.10;3.60;;;5.60;99.90;;;;;;8267420;28;20475;-82
2023/10/16 09:07:20;;;;;;;5.60;3.53;;;5.60;99.90;;;;;;8270982;28;20088;-82
2023/10/16 09:11:21;;;;;;;6.53;3.50;;;5.90;99.90;;;;;;8264536;28;20084;-82
2023/10/16 09:15:25;;;;;;;5.63;3.08;;;6.30;99.90;;;;;;8245396;28;20038;-82
2023/10/16 09:19:33;;;;;;;4.65;3.00;;;6.60;99.90;;;;;;8248963;28;20418;-82
2023/10/16 09:23:36;;;;;;;3.17;2.38;;;6.90;99.90;;;;;;8248726;28;20037;-82
2023/10/16 09:27:36;;;;;;;5.10;3.13;;;7.40;99.90;;;;;;8271320;28;20437;-82
2023/10/16 09:31:37;;;;;;;3.65;2.30;;;7.70;99.90;;;;;;8253009;28;20097;-82
2023/10/16 09:35:43;;;;;;;4.80;2.88;;;8.00;99.90;;;;;;8255250;28;20438;-82
2023/10/16 09:39:48;;;;;;;4.03;2.22;;;8.40;99.90;;;;;;8253057;28;20478;-82
2023/10/16 09:43:56;;;;;;;2.65;1.85;;;8.80;99.90;;;;;;8255616;28;20056;-82
2023/10/16 09:48:07;;;;;;;5.15;2.20;;;9.30;99.90;;;;;;8268548;28;20560;-83
2023/10/16 09:52:08;;;;;;;4.38;2.10;;;9.80;99.90;;;;;;8255549;28;20025;-82
2023/10/16 09:56:12;;;;;;;2.10;1.30;;;10.50;99.90;;;;;;8256363;28;20645;-82
2023/10/16 10:00:31;;;;;;;3.53;1.58;;;10.80;99.90;;;;;;8246943;28;20023;-82
2023/10/16 10:04:35;;;;;;;3.13;1.60;;;10.60;99.90;;;;;;8254163;28;20026;-82
2023/10/16 10:13:34;;;;;;;3.60;1.20;;;10.60;99.90;;;;;;8263084;28;20594;-83
2023/10/16 10:17:29;;;;;;;2.97;1.30;;;10.30;99.90;;;;;;8271392;28;20049;-83
2023/10/16 10:21:44;;;;;;;1.98;1.20;;;10.40;99.90;;;;;;8264585;28;20471;-84
2023/10/16 10:25:46;;;;;;;1.42;1.02;;;10.60;99.90;;;;;;8249532;28;20034;-84
2023/10/16 10:29:50;;;;;;;3.25;1.30;;;11.10;99.90;;;;;;8261435;28;20029;-85
2023/10/16 10:33:55;;;;;;;1.60;1.20;;;11.20;99.90;;;;;;8261406;28;20080;-85
2023/10/16 10:38:21;;;;;;;2.13;1.20;;;11.60;99.90;;;;;;8265351;28;20026;-85
2023/10/16 10:42:37;;;;;;;5.10;1.60;;;12.00;99.90;;;;;;8253498;28;20058;-85
2023/10/16 10:46:42;;;;;;;1.98;1.10;;;12.00;99.90;;;;;;8271546;28;20062;-85
2023/10/16 10:50:45;;;;;;;2.42;1.45;;;11.60;99.90;;;;;;8264319;28;20380;-85
2023/10/16 10:54:58;;;;;;;1.77;1.30;;;11.70;99.90;;;;;;8258562;28;20483;-85
2023/10/16 10:59:04;;;;;;;3.03;1.20;;;12.50;99.90;;;;;;8259384;28;20022;-85
2023/10/16 11:03:08;;;;;;;2.95;1.75;;;14.00;99.90;;;;;;8258062;28;20023;-84
2023/10/16 11:07:12;;;;;;;4.30;1.20;;;14.50;99.90;;;;;;8264662;28;20065;-85
2023/10/16 11:11:12;;;;;;;3.25;1.20;;;14.10;99.90;;;;;;8258093;28;20122;-85
2023/10/16 11:15:16;;;;;;;2.33;1.15;;;14.10;99.90;;;;;;8276010;28;20763;-85
2023/10/16 11:19:28;;;;;;;1.95;1.08;;;14.90;99.90;;;;;;8266617;28;20085;-85
2023/10/16 11:23:31;;;;;;;3.22;1.40;;;15.00;99.90;;;;;;8262565;28;20043;-86
2023/10/16 11:27:33;;;;;;;0.80;0.70;;;15.10;99.90;;;;;;8262303;28;20033;-85
2023/10/16 11:31:40;;;;;;;1.67;1.10;;;15.20;99.90;;;;;;8267291;28;20049;-85
2023/10/16 11:35:46;;;;;;;1.70;1.00;;;13.40;99.90;;;;;;8278131;28;20018;-85
2023/10/16 11:39:48;;;;;;;2.40;1.02;;;13.50;99.90;;;;;;8257245;28;20026;-85
2023/10/16 11:43:51;;;;;;;1.58;0.90;;;14.30;99.90;;;;;;8253706;28;20031;-85
2023/10/16 11:48:18;;;;;;;4.30;1.30;;;15.20;99.90;;;;;;8262235;28;20026;-85
2023/10/16 11:52:19;;;;;;;1.63;1.08;;;15.90;99.90;;;;;;8252366;28;20038;-84
2023/10/16 11:56:19;;;;;;;1.88;1.58;;;16.90;99.90;;;;;;8259517;28;20037;-84
2023/10/16 12:00:28;;;;;;;1.30;1.00;;;16.00;98.50;;;;;;8259970;28;20030;-85
2023/10/16 12:04:29;;;;;;;1.55;0.82;;;14.80;99.90;;;;;;8256842;28;20068;-85
2023/10/16 12:08:30;;;;;;;2.92;1.13;;;16.00;96.90;;;;;;8275434;28;20027;-85
2023/10/16 12:12:30;;;;;;;1.92;0.93;;;16.90;97.60;;;;;;8283788;28;20026;-85
2023/10/16 12:16:31;;;;;;;2.17;1.15;;;17.70;97.50;;;;;;8273520;28;20089;-84
2023/10/16 12:20:33;;;;;;;2.25;1.00;;;16.30;97.90;;;;;;8261254;28;20053;-84
2023/10/16 12:24:34;;;;;;;1.00;0.90;;;16.40;96.40;;;;;;8266906;28;20090;-85
2023/10/16 12:28:34;;;;;;;2.22;1.10;;;15.50;97.60;;;;;;8255427;28;20030;-85
2023/10/16 12:32:35;;;;;;;2.13;1.55;;;13.40;99.90;;;;;;8264090;28;20026;-84
2023/10/16 12:36:35;;;;;;;1.85;1.20;;;12.30;99.90;;;;;;8260409;28;20084;-84
2023/10/16 12:40:39;;;;;;;1.75;1.30;;;11.70;99.90;;;;;;8264204;28;20026;-84
2023/10/16 12:44:39;;;;;;;1.52;1.35;;;11.40;99.90;;;;;;8249463;28;20223;-85
2023/10/16 12:48:40;;;;;;;1.30;1.10;;;11.40;99.90;;;;;;8257867;28;20049;-84
2023/10/16 12:52:42;;;;;;;5.20;2.65;;;11.50;99.90;;;;;;8252583;28;20514;-84
2023/10/16 12:56:45;;;;;;;2.13;1.30;;;11.20;99.90;;;;;;8260385;28;20025;-84
2023/10/16 13:15:38;;;;;;;2.25;1.20;;;11.40;99.90;;;;;;8270128;28;20125;-84
2023/10/16 13:19:39;;;;;;;1.30;1.05;;;11.90;99.90;;;;;;8270346;28;20018;-84
2023/10/16 13:23:40;;;;;;;4.32;1.10;;;12.40;99.90;;;;;;8265931;28;20034;-84
2023/10/16 13:27:40;;;;;;;2.08;1.23;;;12.00;99.90;;;;;;8268963;28;20033;-84
2023/10/16 13:31:45;;;;;;;2.65;1.25;;;11.40;99.90;;;;;;8253758;28;20026;-84
2023/10/16 13:35:46;;;;;;;1.45;1.13;;;11.40;99.90;;;;;;8275774;28;20026;-84
2023/10/16 13:39:46;;;;;;;2.60;1.20;;;13.70;99.90;;;;;;8255459;28;20046;-83
2023/10/16 13:43:47;;;;;;;1.35;1.00;;;15.80;99.90;;;;;;8278333;28;20030;-85
2023/10/16 13:47:49;;;;;;;0.65;0.43;;;16.30;99.10;;;;;;8265200;28;20027;-83
2023/10/16 13:51:53;;;;;;;3.70;1.20;;;14.60;98.20;;;;;;8277281;28;20032;-84
2023/10/16 13:55:54;;;;;;;2.03;1.15;;;14.50;99.90;;;;;;8266449;28;20022;-83
2023/10/16 13:59:54;;;;;;;2.53;1.08;;;14.60;99.50;;;;;;8279629;28;20037;-83
2023/10/16 14:03:58;;;;;;;2.47;1.17;;;13.90;99.20;;;;;;8261545;28;20218;-83
2023/10/16 14:08:00;;;;;;;1.55;1.08;;;12.70;99.90;;;;;;8273959;28;20110;-83
2023/10/16 14:12:01;;;;;;;1.30;0.93;;;12.10;99.90;;;;;;8263197;28;20030;-84
2023/10/16 14:16:11;;;;;;;1.30;0.85;;;11.90;99.90;;;;;;8269563;28;20437;-83
2023/10/16 14:20:12;;;;;;;1.70;1.10;;;11.80;99.90;;;;;;8253031;28;20030;-85
2023/10/16 14:24:17;;;;;;;1.30;0.93;;;11.80;99.90;;;;;;8256571;28;20026;-85
2023/10/16 14:32:34;;;;;;;1.08;0.90;;;11.50;99.90;;;;;;8263956;28;21580;-85
2023/10/16 14:36:35;;;;;;;2.05;0.85;;;11.40;99.90;;;;;;8265627;28;20264;-84
2023/10/16 14:40:42;;;;;;;1.20;0.80;;;11.30;99.90;;;;;;8253946;28;20035;-85
2023/10/16 14:44:45;;;;;;;0.90;0.80;;;11.00;99.90;;;;;;8244472;28;20030;-85
2023/10/16 14:48:45;;;;;;;0.88;0.60;;;10.80;99.90;;;;;;8241429;28;20118;-86
2023/10/16 14:52:47;;;;;;;0.43;0.40;;;10.60;99.90;;;;;;8268579;28;20368;-84
2023/10/16 14:56:49;;;;;;;1.20;0.90;;;10.40;99.90;;;;;;8283928;28;20027;-85
2023/10/16 15:00:50;;;;;;;1.65;1.13;;;10.20;99.90;;;;;;8264269;28;20038;-84
2023/10/16 15:04:51;;;;;;;0.85;0.60;;;10.00;99.90;;;;;;8259150;28;20505;-85
2023/10/16 15:08:54;;;;;;;1.42;0.80;;;9.90;99.90;;;;;;8270362;28;20030;-85
2023/10/16 15:12:55;;;;;;;0.80;0.70;;;9.80;99.90;;;;;;8288406;28;20034;-85
2023/10/16 15:16:55;;;;;;;2.42;0.80;;;9.70;99.90;;;;;;8286065;28;20054;-84
2023/10/16 15:20:56;;;;;;;1.55;0.63;;;9.50;99.90;;;;;;8259995;28;20037;-85
2023/10/16 15:24:56;;;;;;;1.45;0.80;;;9.50;99.90;;;;;;8263768;28;20030;-85
2023/10/16 15:28:57;;;;;;;1.50;0.77;;;9.30;99.90;;;;;;8281927;28;20667;-84
2023/10/16 15:33:00;;;;;;;1.13;0.77;;;9.30;99.90;;;;;;8263608;28;20022;-84
2023/10/16 15:37:00;;;;;;;1.17;0.80;;;9.30;99.90;;;;;;8264041;28;20065;-84
2023/10/16 15:41:01;;;;;;;1.40;0.90;;;9.00;99.90;;;;;;8269277;28;20030;-84
2023/10/16 15:45:02;;;;;;;0.80;0.60;;;8.90;99.90;;;;;;8253000;28;20037;-84
2023/10/16 15:49:02;;;;;;;1.95;0.85;;;8.90;99.90;;;;;;8282811;28;20371;-84
2023/10/16 15:53:04;;;;;;;2.20;0.90;;;8.80;99.90;;;;;;8276453;28;20026;-84
2023/10/16 15:57:05;;;;;;;1.10;0.70;;;8.70;99.90;;;;;;8271152;28;20076;-84
2023/10/16 16:01:05;;;;;;;1.85;0.90;;;8.60;99.90;;;;;;8273584;28;20566;-84
2023/10/16 16:05:06;;;;;;;1.73;0.77;;;8.40;99.90;;;;;;8285021;28;20053;-85
2023/10/16 16:09:12;;;;;;;1.02;0.82;;;8.30;99.90;;;;;;8286132;28;20040;-84
2023/10/16 16:13:12;;;;;;;0.80;0.77;;;8.20;99.90;;;;;;8265531;28;20042;-84
2023/10/16 16:17:13;;;;;;;1.40;0.90;;;8.00;99.90;;;;;;8273234;28;20084;-85
2023/10/16 16:21:16;;;;;;;1.95;0.95;;;7.80;99.90;;;;;;8275446;28;20101;-84
2023/10/16 16:25:18;;;;;;;1.40;0.73;;;7.60;99.90;;;;;;8269614;28;20050;-85
2023/10/16 16:29:18;;;;;;;1.25;0.85;;;7.30;99.90;;;;;;8249373;28;20111;-85
2023/10/16 16:33:19;;;;;;;1.23;0.77;;;7.10;99.90;;;;;;8273422;28;20144;-84
2023/10/16 16:37:19;;;;;;;3.83;1.30;;;6.90;99.90;;;;;;8256467;28;20240;-85
2023/10/16 16:41:20;;;;;;;2.10;1.00;;;6.70;99.90;;;;;;8243215;28;20186;-85
2023/10/16 16:45:20;;;;;;;1.80;0.90;;;6.40;99.90;;;;;;8240952;28;20038;-85
2023/10/16 16:49:22;;;;;;;2.15;0.82;;;6.20;99.90;;;;;;8258198;28;20026;-85
2023/10/16 16:53:22;;;;;;;1.13;0.80;;;5.90;99.90;;;;;;8267529;28;20022;-85
2023/10/16 16:57:23;;;;;;;2.03;0.90;;;5.50;99.90;;;;;;8245524;28;20125;-85
2023/10/16 17:01:23;;;;;;;1.55;0.85;;;5.20;99.90;;;;;;8249975;28;20038;-85
2023/10/16 17:05:24;;;;;;;1.75;1.10;;;4.90;99.90;;;;;;8275988;28;20065;-85
2023/10/16 17:09:25;;;;;;;1.30;1.00;;;4.70;99.90;;;;;;8278377;28;20097;-85
2023/10/16 17:13:25;;;;;;;1.25;0.80;;;4.50;99.90;;;;;;8250307;28;20030;-84
2023/10/16 17:17:26;;;;;;;1.90;1.00;;;4.30;99.90;;;;;;8251752;28;20418;-85
2023/10/16 17:21:27;;;;;;;1.60;0.95;;;4.10;99.90;;;;;;8254846;28;20030;-84
2023/10/16 17:25:27;;;;;;;1.52;0.85;;;3.90;99.90;;;;;;8273944;28;20030;-84
2023/10/16 17:29:28;;;;;;;1.30;0.82;;;3.80;99.90;;;;;;8243790;28;20015;-84
2023/10/16 17:33:29;;;;;;;1.67;1.00;;;3.70;99.90;;;;;;8252803;28;20022;-84
2023/10/16 17:37:29;;;;;;;3.10;1.30;;;3.70;99.90;;;;;;8260332;28;20494;-84
2023/10/16 17:41:30;;;;;;;2.65;1.40;;;3.60;99.90;;;;;;8257533;28;20035;-84
2023/10/16 17:45:30;;;;;;;3.03;1.70;;;3.60;99.90;;;;;;8259773;28;20038;-85
2023/10/16 17:49:31;;;;;;;3.38;1.83;;;3.60;99.90;;;;;;8279309;28;20021;-84
2023/10/16 17:53:32;;;;;;;3.95;2.13;;;3.50;99.90;;;;;;8253219;28;20049;-84
2023/10/16 17:57:33;;;;;;;4.75;2.78;;;3.70;99.90;;;;;;8265061;28;20054;-84
2023/10/16 18:01:34;;;;;;;4.25;2.50;;;3.70;99.90;;;;;;8251689;28;20027;-84
2023/10/16 18:05:35;;;;;;;3.60;2.80;;;3.70;99.90;;;;;;8256531;28;20035;-84
2023/10/16 18:09:36;;;;;;;4.43;3.13;;;3.70;99.90;;;;;;8268576;28;20057;-84
2023/10/16 18:13:37;;;;;;;4.68;2.92;;;3.80;99.90;;;;;;8273800;28;20495;-84
2023/10/16 18:17:39;;;;;;;4.90;3.35;;;3.90;99.90;;;;;;8244563;28;20042;-85
2023/10/16 18:21:40;;;;;;;5.95;3.60;;;4.20;99.90;;;;;;8260319;28;20026;-84
2023/10/16 18:25:46;;;;;;;5.47;3.55;;;4.30;99.90;;;;;;8245324;28;20411;-83
2023/10/16 18:29:46;;;;;;;5.78;3.85;;;4.40;99.90;;;;;;8244320;28;20387;-84
2023/10/16 18:33:47;;;;;;;7.35;4.30;;;4.60;99.90;;;;;;8256766;28;20053;-84
2023/10/16 18:37:48;;;;;;;6.95;4.25;;;4.50;99.90;;;;;;8280469;28;20107;-85
2023/10/16 18:41:49;;;;;;;5.47;3.90;;;4.50;99.90;;;;;;8264552;28;20022;-84
2023/10/16 18:45:49;;;;;;;6.85;4.28;;;4.60;99.90;;;;;;8277626;28;20441;-85
2023/10/16 18:49:50;;;;;;;6.45;4.45;;;4.50;99.90;;;;;;8259842;28;20033;-84
2023/10/16 18:53:52;;;;;;;7.32;4.50;;;4.50;99.90;;;;;;8262559;28;20037;-84
2023/10/16 18:57:56;;;;;;;6.03;3.97;;;4.50;99.90;;;;;;8268227;28;20014;-84
2023/10/16 19:01:56;;;;;;;7.05;4.05;;;4.40;99.90;;;;;;8245607;28;20080;-84
2023/10/16 19:06:03;;;;;;;6.75;4.00;;;4.30;99.90;;;;;;8271531;28;20027;-84
2023/10/16 19:10:07;;;;;;;6.93;4.03;;;4.20;99.90;;;;;;8249672;28;20080;-84
2023/10/16 19:14:08;;;;;;;6.35;4.25;;;4.00;99.90;;;;;;8264522;28;20058;-84
2023/10/16 19:18:11;;;;;;;5.47;3.83;;;4.10;99.90;;;;;;8255247;28;20033;-84
2023/10/16 19:22:12;;;;;;;7.90;4.72;;;4.10;99.90;;;;;;8276747;28;21345;-83
2023/10/16 19:26:16;;;;;;;7.07;4.38;;;4.00;99.90;;;;;;8290673;28;20038;-85
2023/10/16 19:30:17;;;;;;;7.00;4.50;;;3.90;99.90;;;;;;8266072;28;20037;-85
2023/10/16 19:34:18;;;;;;;8.65;4.45;;;3.70;99.90;;;;;;8270610;28;20026;-84
2023/10/16 19:38:18;;;;;;;8.75;4.72;;;3.80;99.90;;;;;;8263668;28;20398;-84
2023/10/16 19:42:19;;;;;;;7.72;4.47;;;3.80;99.90;;;;;;8288440;28;20784;-83
2023/10/16 19:46:20;;;;;;;7.22;4.50;;;3.90;99.90;;;;;;8268114;28;20394;-84
2023/10/16 19:50:20;;;;;;;6.65;4.53;;;4.00;99.90;;;;;;8255783;28;20026;-84
2023/10/16 19:54:23;;;;;;;8.23;4.50;;;3.80;99.90;;;;;;8265576;28;20069;-84
2023/10/16 19:58:24;;;;;;;8.15;4.35;;;3.60;99.90;;;;;;8258225;28;20034;-84
2023/10/16 20:02:24;;;;;;;6.70;4.13;;;3.50;99.90;;;;;;8267484;28;20033;-84
2023/10/16 20:06:29;;;;;;;8.07;4.53;;;3.40;99.90;;;;;;8262324;28;20022;-84
2023/10/16 20:10:34;;;;;;;5.88;4.05;;;3.30;99.90;;;;;;8253186;28;20053;-83
2023/10/16 20:14:38;;;;;;;6.03;3.85;;;3.20;99.90;;;;;;8264195;28;20022;-84
2023/10/16 20:18:42;;;;;;;8.52;4.93;;;3.10;99.90;;;;;;8267127;28;20022;-82
2023/10/16 20:22:49;;;;;;;7.10;4.22;;;3.10;99.90;;;;;;8266725;28;20030;-82
2023/10/16 20:26:50;;;;;;;9.75;5.20;;;3.10;99.90;;;;;;8255212;28;20491;-84
2023/10/16 20:30:52;;;;;;;7.20;4.32;;;3.10;99.90;;;;;;8263301;28;20113;-84
2023/10/16 20:34:52;;;;;;;9.32;4.45;;;3.20;99.90;;;;;;8241810;28;20061;-84
2023/10/16 20:38:53;;;;;;;7.72;4.50;;;3.20;99.90;;;;;;8252112;28;20030;-83
2023/10/16 20:42:56;;;;;;;7.80;4.65;;;3.10;99.90;;;;;;8250301;28;20030;-85
2023/10/16 20:46:56;;;;;;;10.05;4.90;;;3.10;99.90;;;;;;8251964;28;20034;-85
2023/10/16 20:50:57;;;;;;;7.93;4.53;;;2.90;99.90;;;;;;8268832;28;20482;-84
2023/10/16 20:54:57;;;;;;;7.70;4.70;;;2.90;99.90;;;;;;8288910;28;20421;-84
2023/10/16 20:58:59;;;;;;;8.45;4.40;;;2.80;99.90;;;;;;8252469;28;20549;-84
2023/10/16 21:03:05;;;;;;;8.63;4.65;;;2.80;99.90;;;;;;8250877;28;20056;-84
2023/10/16 21:07:06;;;;;;;7.47;4.50;;;2.80;99.90;;;;;;8250241;28;20026;-84
2023/10/16 21:11:06;;;;;;;7.80;4.50;;;2.70;99.90;;;;;;8263551;28;20045;-84
2023/10/16 21:15:15;;;;;;;8.57;4.93;;;2.70;99.90;;;;;;8279309;28;20382;-84
2023/10/16 21:19:16;;;;;;;9.52;5.28;;;2.90;99.90;;;;;;8250166;28;20675;-84
2023/10/16 21:23:17;;;;;;;9.70;4.90;;;2.80;99.90;;;;;;8272296;28;20031;-83
2023/10/16 21:27:17;;;;;;;10.05;5.68;;;2.90;99.90;;;;;;8266765;28;20030;-84
2023/10/16 21:31:18;;;;;;;7.93;4.72;;;2.90;99.90;;;;;;8262073;28;20029;-83
2023/10/16 21:35:21;;;;;;;10.23;5.40;;;3.10;99.90;;;;;;8262838;28;20069;-83
2023/10/16 21:39:22;;;;;;;8.82;5.10;;;3.10;99.90;;;;;;8284612;28;20330;-83
2023/10/16 21:43:22;;;;;;;7.65;4.93;;;3.10;99.90;;;;;;8271736;28;20034;-83
2023/10/16 21:47:24;;;;;;;9.60;5.35;;;3.00;99.90;;;;;;8252042;28;20394;-83
2023/10/16 21:51:25;;;;;;;9.75;5.50;;;3.00;99.90;;;;;;8269274;28;20054;-84
2023/10/16 21:55:26;;;;;;;10.05;5.22;;;3.00;99.90;;;;;;8238601;28;20018;-84
2023/10/16 21:59:27;;;;;;;8.63;5.22;;;2.90;99.90;;;;;;8283474;28;20045;-84
2023/10/16 22:03:27;;;;;;;11.65;5.50;;;2.60;99.90;;;;;;8251777;28;20073;-84
2023/10/16 22:07:28;;;;;;;10.98;5.53;;;2.60;99.90;;;;;;8256975;28;20080;-83
2023/10/16 22:11:28;;;;;;;9.32;5.40;;;2.50;99.90;;;;;;8259721;28;20039;-83
2023/10/16 22:15:29;;;;;;;11.30;5.68;;;2.30;99.90;;;;;;8264912;28;20096;-83
2023/10/16 22:19:29;;;;;;;9.35;5.47;;;2.30;99.90;;;;;;8259602;28;20060;-83
2023/10/16 22:23:30;;;;;;;9.45;5.22;;;2.10;99.90;;;;;;8279536;28;20101;-84
2023/10/16 22:27:32;;;;;;;9.73;5.47;;;1.90;99.90;;;;;;8257423;28;20577;-83
2023/10/16 22:31:34;;;;;;;9.50;4.93;;;1.70;99.90;;;;;;8261586;28;20034;-84
2023/10/16 22:35:43;;;;;;;9.50;5.43;;;1.70;99.90;;;;;;8264803;28;20018;-83
2023/10/16 22:39:44;;;;;;;11.20;5.95;;;1.70;99.90;;;;;;8282676;28;20045;-83
2023/10/16 22:43:44;;;;;;;10.25;5.25;;;1.60;99.90;;;;;;8257530;28;20034;-83
2023/10/16 22:47:45;;;;;;;9.02;5.38;;;1.60;99.90;;;;;;8259273;28;20483;-84
2023/10/16 22:51:47;;;;;;;9.98;5.45;;;1.50;99.90;;;;;;8266632;28;20022;-84
2023/10/16 22:55:47;;;;;;;11.27;5.55;;;1.40;99.90;;;;;;8262106;28;20039;-84
2023/10/16 22:59:50;;;;;;;10.30;5.68;;;1.40;99.90;;;;;;8268046;28;20606;-83
2023/10/16 23:03:51;;;;;;;10.18;5.18;;;1.30;99.90;;;;;;8259813;28;20026;-84
2023/10/16 23:07:52;;;;;;;9.40;5.03;;;1.20;99.90;;;;;;8290568;28;20101;-84